createdAt,value
2023-07-05T00:04:27.018Z,81.51
2023-07-05T00:09:30.899Z,81.89
2023-07-05T00:14:34.745Z,82.50
2023-07-05T00:19:38.486Z,83.63
2023-07-05T00:24:42.333Z,83.80
2023-07-05T00:29:46.211Z,83.93
2023-07-05T00:34:50.087Z,84.01
2023-07-05T00:39:54.003Z,85.55
2023-07-05T00:45:13.261Z,84.80
2023-07-05T00:50:26.302Z,85.20
2023-07-05T00:55:30.462Z,85.73
2023-07-05T01:00:34.335Z,86.39
2023-07-05T01:05:39.019Z,86.96
2023-07-05T01:10:48.700Z,87.18
2023-07-05T01:16:23.638Z,87.21
2023-07-05T01:21:49.769Z,87.85
2023-07-05T01:27:11.688Z,89.47
2023-07-05T01:32:18.084Z,89.51
2023-07-05T01:37:29.919Z,89.64
2023-07-05T01:42:35.734Z,89.25
2023-07-05T01:47:54.666Z,89.37
2023-07-05T01:53:09.222Z,89.56
2023-07-05T01:58:16.535Z,90.65
2023-07-05T02:03:23.683Z,90.62
2023-07-05T02:08:31.236Z,90.55
2023-07-05T02:13:35.071Z,90.95
2023-07-05T02:18:41.293Z,91.50
2023-07-05T02:23:45.427Z,91.72
2023-07-05T02:28:50.543Z,91.17
2023-07-05T02:33:54.904Z,92.03
2023-07-05T02:39:00.940Z,92.92
2023-07-05T02:44:05.321Z,93.05
2023-07-05T02:49:10.160Z,93.18
2023-07-05T02:54:14.507Z,93.17
2023-07-05T02:59:18.521Z,93.23
2023-07-05T03:04:22.499Z,93.19
2023-07-05T03:09:26.420Z,93.13
2023-07-05T03:14:30.328Z,92.88
2023-07-05T03:19:34.456Z,92.81
2023-07-05T03:24:38.512Z,92.69
2023-07-05T03:29:42.399Z,93.14
2023-07-05T03:34:46.328Z,93.28
2023-07-05T03:39:54.453Z,92.96
2023-07-05T03:44:58.437Z,93.26
2023-07-05T03:50:02.331Z,92.35
2023-07-05T03:55:07.291Z,91.54
2023-07-05T04:00:12.064Z,90.42
2023-07-05T04:05:20.260Z,89.24
2023-07-05T04:10:26.905Z,87.94
2023-07-05T04:15:30.718Z,87.84
2023-07-05T04:20:34.566Z,86.28
2023-07-05T04:25:38.440Z,85.44
2023-07-05T04:30:42.250Z,83.60
2023-07-05T04:35:54.316Z,83.43
2023-07-05T04:40:59.707Z,82.39
2023-07-05T04:46:03.740Z,80.22
2023-07-05T04:51:07.681Z,80.53
2023-07-05T04:56:14.001Z,80.41
2023-07-05T05:01:19.837Z,80.52
2023-07-05T05:06:24.116Z,79.06
2023-07-05T05:11:30.595Z,77.42
2023-07-05T05:16:34.503Z,75.33
2023-07-05T05:21:38.910Z,74.71
2023-07-05T05:26:42.750Z,75.53
2023-07-05T05:31:46.520Z,75.44
2023-07-05T05:36:51.838Z,74.91
2023-07-05T05:41:55.684Z,74.48
2023-07-05T05:46:59.549Z,74.50
2023-07-05T05:52:03.617Z,74.32
2023-07-05T05:57:08.234Z,74.00
2023-07-05T06:02:12.364Z,73.36
2023-07-05T06:07:19.997Z,72.99
2023-07-05T06:12:24.614Z,72.39
2023-07-05T06:17:28.445Z,70.88
2023-07-05T06:22:33.916Z,70.58
2023-07-05T06:27:38.669Z,70.49
2023-07-05T06:32:45.101Z,70.16
2023-07-05T06:37:48.973Z,69.60
2023-07-05T06:42:53.864Z,69.25
2023-07-05T06:47:59.043Z,69.63
2023-07-05T06:53:23.201Z,68.61
2023-07-05T06:58:33.693Z,68.51
2023-07-05T07:03:37.911Z,68.39
2023-07-05T07:08:41.786Z,67.27
2023-07-05T07:13:45.721Z,67.00
2023-07-05T07:18:51.496Z,66.71
2023-07-05T07:23:55.267Z,66.47
2023-07-05T07:28:59.161Z,65.87
2023-07-05T07:34:04.862Z,65.38
2023-07-05T07:39:09.697Z,64.56
2023-07-05T07:44:14.617Z,64.49
2023-07-05T07:49:18.618Z,63.87
2023-07-05T07:54:27.427Z,63.90
2023-07-05T07:59:31.234Z,63.11
2023-07-05T08:04:35.201Z,62.84
2023-07-05T08:09:39.350Z,61.95
2023-07-05T08:14:43.132Z,61.45
2023-07-05T08:19:48.627Z,61.20
2023-07-05T08:24:53.131Z,60.47
2023-07-05T08:29:57.090Z,59.55
2023-07-05T08:35:00.878Z,59.83
2023-07-05T08:40:08.916Z,59.14
2023-07-05T08:45:12.910Z,58.57
2023-07-05T08:50:28.974Z,57.32
2023-07-05T08:55:55.601Z,56.67
2023-07-05T09:01:11.629Z,57.02
2023-07-05T09:06:23.218Z,56.03
2023-07-05T09:11:59.005Z,55.11
2023-07-05T09:17:10.485Z,53.42
2023-07-05T09:22:20.837Z,53.14
2023-07-05T09:27:28.725Z,52.21
2023-07-05T09:32:37.076Z,51.18
2023-07-05T09:37:45.515Z,51.03
2023-07-05T09:43:03.638Z,50.34
2023-07-05T09:48:12.509Z,49.77
2023-07-05T09:53:34.817Z,48.48
2023-07-05T09:58:40.116Z,48.35
2023-07-05T10:03:55.726Z,47.34
2023-07-05T10:09:12.438Z,46.28
2023-07-05T10:14:18.946Z,45.24
2023-07-05T10:19:32.319Z,44.86
2023-07-05T10:24:47.900Z,44.22
2023-07-05T10:29:59.181Z,43.63
2023-07-05T10:35:03.458Z,42.97
2023-07-05T10:40:11.110Z,43.01
2023-07-05T10:45:16.601Z,42.45
2023-07-05T10:50:35.129Z,42.66
2023-07-05T10:56:07.208Z,42.36
2023-07-05T11:01:19.858Z,41.79
2023-07-05T11:06:24.876Z,42.36
2023-07-05T11:11:32.121Z,42.15
2023-07-05T11:16:36.226Z,41.63
2023-07-05T11:21:46.305Z,41.77
2023-07-05T11:26:50.264Z,42.00
2023-07-05T11:32:14.244Z,42.35
2023-07-05T11:37:18.020Z,42.30
2023-07-05T11:42:22.916Z,42.03
2023-07-05T11:47:26.730Z,41.61
2023-07-05T11:52:33.932Z,41.35
2023-07-05T11:57:46.356Z,41.62
2023-07-05T12:03:01.568Z,41.60
2023-07-05T12:08:14.666Z,41.43
2023-07-05T12:13:26.404Z,42.54
2023-07-05T12:18:32.498Z,43.51
2023-07-05T12:23:37.733Z,44.58
2023-07-05T12:28:44.256Z,45.93
2023-07-05T12:33:56.551Z,47.29
2023-07-05T12:39:09.157Z,47.99
2023-07-05T12:44:20.258Z,48.70
2023-07-05T12:49:30.244Z,49.46
2023-07-05T12:54:43.083Z,49.87
2023-07-05T13:00:04.948Z,50.25
2023-07-05T13:05:21.882Z,50.76
2023-07-05T13:10:30.361Z,51.59
2023-07-05T13:15:38.837Z,52.08
2023-07-05T13:20:50.438Z,52.37
2023-07-05T13:25:54.471Z,52.88
2023-07-05T13:31:04.750Z,53.60
2023-07-05T13:36:09.524Z,53.98
2023-07-05T13:41:13.340Z,55.39
2023-07-05T13:46:17.641Z,56.30
2023-07-05T13:51:30.528Z,57.73
2023-07-05T13:56:37.607Z,59.27
2023-07-05T14:01:49.523Z,60.68
2023-07-05T14:06:54.867Z,61.79
2023-07-05T14:12:00.872Z,62.71
2023-07-05T14:17:05.675Z,63.78
2023-07-05T14:22:20.677Z,64.54
2023-07-05T14:27:25.719Z,65.18
2023-07-05T14:32:29.697Z,65.83
2023-07-05T14:37:36.866Z,66.33
2023-07-05T14:42:41.448Z,65.91
2023-07-05T14:47:52.708Z,66.08
2023-07-05T14:52:58.741Z,65.75
2023-07-05T14:58:03.230Z,66.44
2023-07-05T15:03:10.234Z,66.99
2023-07-05T15:08:15.379Z,67.16
2023-07-05T15:13:22.299Z,67.40
2023-07-05T15:18:26.110Z,68.04
2023-07-05T15:23:37.049Z,69.06
2023-07-05T15:28:41.821Z,69.55
2023-07-05T15:33:45.863Z,69.67
2023-07-05T15:38:50.549Z,69.59
2023-07-05T15:43:54.397Z,69.55
2023-07-05T15:48:58.554Z,69.71
2023-07-05T15:54:03.275Z,68.77
2023-07-05T15:59:14.181Z,68.32
2023-07-05T16:04:18.001Z,67.78
2023-07-05T16:09:22.258Z,67.67
2023-07-05T16:14:30.152Z,67.55
2023-07-05T16:19:40.572Z,67.93
2023-07-05T16:24:46.577Z,68.78
2023-07-05T16:29:53.983Z,69.99
2023-07-05T16:34:58.094Z,70.41
2023-07-05T16:40:05.562Z,71.26
2023-07-05T16:45:13.860Z,71.81
2023-07-05T16:50:18.426Z,72.29
2023-07-05T16:55:23.282Z,72.72
2023-07-05T17:00:30.358Z,72.92
2023-07-05T17:05:35.596Z,73.71
2023-07-05T17:10:40.064Z,74.64
2023-07-05T17:15:44.493Z,75.23
2023-07-05T17:21:00.549Z,76.16
2023-07-05T17:26:11.885Z,76.86
2023-07-05T17:31:22.552Z,77.59
2023-07-05T17:36:28.621Z,77.85
2023-07-05T17:41:33.822Z,77.87
2023-07-05T17:46:44.720Z,77.96
2023-07-05T17:51:49.361Z,78.46
2023-07-05T17:56:53.342Z,78.35
2023-07-05T18:01:57.983Z,78.33
2023-07-05T18:07:03.070Z,77.73
2023-07-05T18:12:07.996Z,78.01
2023-07-05T18:17:12.855Z,77.99
2023-07-05T18:22:17.725Z,77.95
2023-07-05T18:27:22.359Z,78.26
2023-07-05T18:32:26.779Z,78.40
2023-07-05T18:37:32.644Z,77.94
2023-07-05T18:42:37.152Z,77.49
2023-07-05T18:47:42.109Z,77.17
2023-07-05T18:52:46.875Z,77.12
2023-07-05T18:57:51.306Z,77.32
2023-07-05T19:02:55.885Z,77.54
2023-07-05T19:08:00.433Z,77.91
2023-07-05T19:13:04.798Z,78.39
2023-07-05T19:18:10.060Z,78.71
2023-07-05T19:23:15.749Z,79.20
2023-07-05T19:28:19.672Z,79.81
2023-07-05T19:33:23.745Z,80.52
2023-07-05T19:38:28.025Z,81.20
2023-07-05T19:43:34.179Z,81.68
2023-07-05T19:48:38.825Z,82.81
2023-07-05T19:53:46.320Z,83.15
2023-07-05T19:58:51.378Z,83.93
2023-07-05T20:03:56.253Z,84.46
2023-07-05T20:09:05.223Z,85.21
2023-07-05T20:14:10.869Z,85.73
2023-07-05T20:19:16.098Z,86.48
2023-07-05T20:24:20.855Z,87.33
2023-07-05T20:29:25.135Z,88.46
2023-07-05T20:34:29.436Z,88.95
2023-07-05T20:39:33.161Z,89.21
2023-07-05T20:44:37.082Z,89.26
2023-07-05T20:49:40.918Z,89.91
2023-07-05T20:54:51.157Z,90.27
2023-07-05T20:59:56.058Z,90.95
2023-07-05T21:04:59.801Z,91.46
2023-07-05T21:10:03.657Z,92.03
2023-07-05T21:15:08.843Z,92.33
2023-07-05T21:20:13.318Z,92.51
2023-07-05T21:25:17.606Z,92.73
2023-07-05T21:30:21.309Z,93.28
2023-07-05T21:35:31.113Z,93.19
2023-07-05T21:40:38.455Z,93.84
2023-07-05T21:45:46.636Z,93.93
2023-07-05T21:50:51.779Z,94.05
2023-07-05T21:56:03.620Z,93.38
2023-07-05T22:01:09.763Z,93.23
2023-07-05T22:06:13.719Z,93.15
2023-07-05T22:11:17.685Z,93.13
2023-07-05T22:16:21.753Z,92.95
2023-07-05T22:21:26.503Z,92.71
2023-07-05T22:26:30.301Z,92.86
2023-07-05T22:31:35.087Z,92.86
2023-07-05T22:36:39.753Z,93.01
2023-07-05T22:41:43.403Z,93.19
2023-07-05T22:46:47.194Z,93.35
2023-07-05T22:51:53.207Z,93.46
2023-07-05T22:56:58.394Z,93.76
2023-07-05T23:02:05.184Z,93.95
2023-07-05T23:07:09.420Z,93.91
2023-07-05T23:12:13.349Z,94.00
2023-07-05T23:17:17.194Z,93.99
2023-07-05T23:22:21.074Z,93.91
2023-07-05T23:27:24.900Z,93.58
2023-07-05T23:32:29.924Z,93.50
2023-07-05T23:37:33.698Z,93.05
2023-07-05T23:42:38.789Z,92.68
2023-07-05T23:47:42.902Z,92.60
2023-07-05T23:52:46.801Z,92.46
2023-07-05T23:57:50.580Z,92.54
